Terminal Aerodrome Forecast
Issued by NWS

Home | Current Version | Previous Version | Text Only | Print | Product List | Glossary On
Versions: 1 2 3 4 5 6 7 8 9 10 11 12 13 14 15 16 17 18 19 20 21 22 23 24 25 26 27 28 29
000
FTUS43 KGLD 010819 AAA
TAFMCK
TAF AMD
KMCK 010819Z 0108/0206 27013KT P6SM SCT120 BKN200
     FM010900 30014G25KT P6SM -TSRA SCT050CB OVC120
     FM011000 VRB06KT P6SM SCT070 BKN150
     FM011600 18010KT P6SM FEW100 SCT250=

USA.gov is the U.S. government's official web portal to all federal, state and local government web resources and services.